Terminal Aerodrome Forecast
Issued by NWS Pendleton, OR

Home | Current Version | Previous Version | Text Only | Print | Product List | Glossary On
Versions: 1 2 3 4 5 6 7 8 9 10 11 12 13 14
000
FTUS46 KPDT 211130
TAFPDT
TAF
KPDT 211130Z 2112/2212 18011KT P6SM SCT070 BKN090
     FM211500 17007KT P6SM -RA BKN050 BKN100
     FM212200 20018G28KT P6SM VCSH BKN050 BKN100
     FM220300 22025G35KT P6SM VCSH SCT050 BKN100=

USA.gov is the U.S. government's official web portal to all federal, state and local government web resources and services.